createdAt,value
2022-10-23T00:00:30.084Z,7.00
2022-10-23T00:05:32.066Z,6.68
2022-10-23T00:10:33.772Z,7.28
2022-10-23T00:15:36.620Z,6.38
2022-10-23T00:20:38.166Z,6.38
2022-10-23T00:25:39.662Z,6.72
2022-10-23T00:30:41.256Z,6.30
2022-10-23T00:35:43.319Z,6.50
2022-10-23T00:40:45.371Z,6.85
2022-10-23T00:45:47.298Z,7.97
2022-10-23T00:50:49.704Z,8.07
2022-10-23T00:55:52.537Z,7.40
2022-10-23T01:00:56.584Z,7.32
2022-10-23T01:06:07.594Z,6.20
2022-10-23T01:11:20.299Z,6.35
2022-10-23T01:17:02.831Z,5.55
2022-10-23T01:22:42.577Z,6.22
2022-10-23T01:27:50.389Z,6.80
2022-10-23T01:33:02.416Z,6.50
2022-10-23T01:38:28.036Z,6.22
2022-10-23T01:44:04.910Z,6.32
2022-10-23T01:49:12.805Z,5.47
2022-10-23T01:54:19.308Z,5.90
2022-10-23T01:59:29.519Z,6.22
2022-10-23T02:04:38.225Z,6.82
2022-10-23T02:09:40.169Z,7.40
2022-10-23T02:14:53.833Z,6.97
2022-10-23T02:20:02.596Z,6.97
2022-10-23T02:25:15.230Z,6.25
2022-10-23T02:30:20.060Z,5.57
2022-10-23T02:35:33.507Z,5.28
2022-10-23T02:40:45.989Z,5.47
2022-10-23T02:46:03.988Z,5.53
2022-10-23T02:51:22.165Z,4.78
2022-10-23T02:56:36.601Z,5.50
2022-10-23T03:01:59.182Z,5.28
2022-10-23T03:07:01.176Z,5.05
2022-10-23T03:12:03.441Z,4.50
2022-10-23T03:17:08.022Z,4.10
2022-10-23T03:22:09.539Z,4.03
2022-10-23T03:27:11.103Z,4.28
2022-10-23T03:32:13.165Z,4.63
2022-10-23T03:37:14.740Z,3.90
2022-10-23T03:42:16.574Z,3.50
2022-10-23T03:47:18.744Z,3.35
2022-10-23T03:52:20.280Z,2.97
2022-10-23T03:57:21.853Z,3.25
2022-10-23T04:02:24.343Z,3.20
2022-10-23T04:07:27.119Z,4.22
2022-10-23T04:12:28.905Z,3.15
2022-10-23T04:17:30.492Z,2.70
2022-10-23T04:22:32.205Z,3.05
2022-10-23T04:27:35.065Z,3.45
2022-10-23T04:32:36.728Z,3.05
2022-10-23T04:37:39.621Z,3.10
2022-10-23T04:42:41.973Z,3.10
2022-10-23T04:47:43.894Z,3.08
2022-10-23T04:52:45.563Z,3.97
2022-10-23T04:58:16.201Z,2.45
2022-10-23T05:03:20.259Z,3.22
2022-10-23T05:08:23.440Z,2.50
2022-10-23T05:13:43.667Z,2.38
2022-10-23T05:18:47.927Z,2.88
2022-10-23T05:23:50.202Z,2.80
2022-10-23T05:28:52.027Z,2.97
2022-10-23T05:33:56.252Z,2.30
2022-10-23T05:38:58.884Z,3.08
2022-10-23T05:44:01.237Z,2.20
2022-10-23T05:49:40.982Z,3.03
2022-10-23T05:55:05.623Z,2.60
2022-10-23T06:00:25.778Z,2.22
2022-10-23T06:05:50.987Z,2.55
2022-10-23T06:11:09.868Z,2.72
2022-10-23T06:16:16.133Z,2.75
2022-10-23T06:21:18.265Z,2.65
2022-10-23T06:26:22.635Z,3.33
2022-10-23T06:31:34.038Z,3.60
2022-10-23T06:36:37.037Z,2.58
2022-10-23T06:42:06.701Z,3.53
2022-10-23T06:47:28.496Z,2.50
2022-10-23T06:52:48.692Z,2.83
2022-10-23T06:57:53.319Z,2.95
2022-10-23T07:02:55.054Z,3.20
2022-10-23T07:07:57.619Z,2.72
2022-10-23T07:13:02.754Z,2.78
2022-10-23T07:18:24.594Z,3.33
2022-10-23T07:23:48.838Z,2.33
2022-10-23T07:28:50.539Z,2.58
2022-10-23T07:33:55.731Z,1.80
2022-10-23T07:38:57.501Z,1.85
2022-10-23T07:43:59.877Z,1.70
2022-10-23T07:49:02.058Z,1.83
2022-10-23T07:54:04.322Z,2.05
2022-10-23T07:59:24.424Z,1.60
2022-10-23T08:04:29.374Z,1.95
2022-10-23T08:09:39.558Z,1.65
2022-10-23T08:14:44.010Z,2.40
2022-10-23T08:19:46.324Z,1.90
2022-10-23T08:24:48.172Z,2.13
2022-10-23T08:29:49.739Z,1.98
2022-10-23T08:34:51.382Z,1.80
2022-10-23T08:39:53.504Z,2.13
2022-10-23T08:45:18.266Z,1.70
2022-10-23T08:50:24.843Z,2.03
2022-10-23T08:55:37.213Z,1.67
2022-10-23T09:00:38.818Z,2.03
2022-10-23T09:05:55.141Z,1.52
2022-10-23T09:11:00.484Z,2.13
2022-10-23T09:16:06.949Z,1.83
2022-10-23T09:21:09.923Z,1.55
2022-10-23T09:26:17.086Z,1.75
2022-10-23T09:31:19.386Z,1.30
2022-10-23T09:36:22.277Z,1.45
2022-10-23T09:41:28.786Z,1.10
2022-10-23T09:46:48.189Z,1.13
2022-10-23T09:52:21.756Z,2.00
2022-10-23T09:57:41.796Z,1.30
2022-10-23T10:03:06.819Z,1.27
2022-10-23T10:08:20.607Z,1.33
2022-10-23T10:13:34.168Z,1.35
2022-10-23T10:19:05.207Z,1.40
2022-10-23T10:24:17.707Z,1.35
2022-10-23T10:29:40.590Z,1.40
2022-10-23T10:34:59.302Z,1.08
2022-10-23T10:40:24.573Z,1.60
2022-10-23T10:45:49.450Z,1.45
2022-10-23T10:51:36.494Z,1.45
2022-10-23T10:56:45.254Z,1.70
2022-10-23T11:02:20.457Z,1.52
2022-10-23T11:07:26.799Z,1.92
2022-10-23T11:12:30.676Z,1.85
2022-10-23T11:17:39.129Z,1.80
2022-10-23T11:22:57.819Z,1.88
2022-10-23T11:28:34.279Z,1.50
2022-10-23T11:33:50.449Z,2.00
2022-10-23T11:38:52.003Z,1.65
2022-10-23T11:43:59.461Z,1.63
2022-10-23T11:49:02.375Z,2.17
2022-10-23T11:54:09.967Z,1.13
2022-10-23T11:59:34.803Z,1.20
2022-10-23T12:04:48.939Z,1.10
2022-10-23T12:09:58.913Z,1.13
2022-10-23T12:15:12.749Z,1.30
2022-10-23T12:20:14.230Z,1.30
2022-10-23T12:25:23.905Z,1.88
2022-10-23T12:30:32.641Z,1.50
2022-10-23T12:35:39.869Z,1.30
2022-10-23T12:40:45.952Z,1.67
2022-10-23T12:50:50.715Z,1.88
2022-10-23T12:56:05.036Z,1.50
2022-10-23T13:01:07.183Z,1.60
2022-10-23T13:06:11.354Z,1.50
2022-10-23T13:11:17.826Z,1.33
2022-10-23T13:16:25.344Z,1.58
2022-10-23T13:21:28.789Z,1.33
2022-10-23T13:26:38.254Z,1.65
2022-10-23T13:31:39.781Z,1.30
2022-10-23T13:36:53.430Z,1.75
2022-10-23T13:41:55.733Z,2.03
2022-10-23T13:46:57.330Z,1.65
2022-10-23T13:51:58.881Z,2.17
2022-10-23T13:57:00.441Z,1.58
2022-10-23T14:02:02.306Z,1.77
2022-10-23T14:07:03.822Z,1.50
2022-10-23T14:12:05.561Z,1.48
2022-10-23T14:17:07.146Z,1.80
2022-10-23T14:22:08.683Z,1.80
2022-10-23T14:27:10.227Z,2.13
2022-10-23T14:32:11.752Z,1.90
2022-10-23T14:37:13.304Z,1.38
2022-10-23T14:42:14.963Z,1.65
2022-10-23T14:47:17.959Z,2.50
2022-10-23T14:52:19.879Z,1.90
2022-10-23T14:57:22.088Z,1.85
2022-10-23T15:02:23.779Z,1.80
2022-10-23T15:07:25.422Z,1.88
2022-10-23T15:12:26.944Z,2.00
2022-10-23T15:17:28.535Z,2.03
2022-10-23T15:22:30.258Z,2.33
2022-10-23T15:27:31.991Z,2.33
2022-10-23T15:32:33.519Z,2.50
2022-10-23T15:37:35.651Z,2.50
2022-10-23T15:42:37.172Z,2.13
2022-10-23T15:47:38.735Z,2.00
2022-10-23T15:52:40.270Z,2.00
2022-10-23T15:57:41.959Z,2.65
2022-10-23T16:02:44.044Z,1.95
2022-10-23T16:07:45.767Z,2.22
2022-10-23T16:12:47.466Z,2.33
2022-10-23T16:17:49.108Z,2.17
2022-10-23T16:22:50.689Z,2.53
2022-10-23T16:27:52.217Z,2.42
2022-10-23T16:32:53.735Z,3.30
2022-10-23T16:37:55.364Z,3.28
2022-10-23T16:42:58.455Z,2.90
2022-10-23T16:48:07.003Z,3.45
2022-10-23T16:53:08.489Z,9.30
2022-10-23T16:58:10.118Z,6.35
2022-10-23T17:03:11.688Z,14.98
2022-10-23T17:08:13.243Z,3.55
2022-10-23T17:13:14.782Z,4.13
2022-10-23T17:18:16.275Z,4.10
2022-10-23T17:23:17.874Z,4.70
2022-10-23T17:28:19.491Z,3.90
2022-10-23T17:33:21.169Z,4.07
2022-10-23T17:38:22.742Z,3.67
2022-10-23T17:43:24.293Z,4.57
2022-10-23T17:48:26.434Z,2.88
2022-10-23T17:53:28.291Z,3.30
2022-10-23T17:58:30.256Z,3.15
2022-10-23T18:03:31.961Z,2.50
2022-10-23T18:08:34.102Z,3.55
2022-10-23T18:13:36.702Z,3.80
2022-10-23T18:18:40.027Z,3.08
2022-10-23T18:23:42.340Z,2.92
2022-10-23T18:28:46.231Z,3.90
2022-10-23T18:33:47.925Z,4.43
2022-10-23T18:38:50.138Z,2.80
2022-10-23T18:43:52.790Z,1.50
2022-10-23T18:48:54.564Z,1.83
2022-10-23T18:53:56.596Z,1.92
2022-10-23T18:59:00.617Z,1.77
2022-10-23T19:04:03.202Z,1.98
2022-10-23T19:09:07.011Z,2.70
2022-10-23T19:14:09.234Z,3.15
2022-10-23T19:19:19.814Z,3.33
2022-10-23T19:24:31.747Z,2.30
2022-10-23T19:29:33.761Z,3.08
2022-10-23T19:34:35.526Z,3.15
2022-10-23T19:39:37.180Z,2.60
2022-10-23T19:44:38.723Z,3.00
2022-10-23T19:49:40.489Z,2.80
2022-10-23T19:54:42.045Z,2.90
2022-10-23T19:59:47.589Z,3.42
2022-10-23T20:04:49.099Z,4.32
2022-10-23T20:09:50.646Z,4.07
2022-10-23T20:14:52.265Z,4.85
2022-10-23T20:19:53.848Z,5.30
2022-10-23T20:24:55.485Z,5.13
2022-10-23T20:29:57.028Z,6.25
2022-10-23T20:34:58.613Z,5.75
2022-10-23T20:40:00.608Z,5.63
2022-10-23T20:45:02.214Z,5.38
2022-10-23T20:50:04.007Z,5.57
2022-10-23T20:55:05.836Z,5.50
2022-10-23T21:00:08.040Z,6.35
2022-10-23T21:05:09.603Z,5.03
2022-10-23T21:10:11.149Z,5.70
2022-10-23T21:15:12.720Z,5.20
2022-10-23T21:20:14.492Z,4.50
2022-10-23T21:25:16.103Z,5.47
2022-10-23T21:30:17.626Z,5.65
2022-10-23T21:35:19.187Z,5.30
2022-10-23T21:40:20.715Z,5.03
2022-10-23T21:45:22.512Z,4.22
2022-10-23T21:50:24.012Z,4.97
2022-10-23T21:55:27.816Z,4.15
2022-10-23T22:00:29.353Z,5.10
2022-10-23T22:05:30.855Z,4.82
2022-10-23T22:10:34.248Z,5.05
2022-10-23T22:15:35.809Z,4.88
2022-10-23T22:20:37.326Z,5.15
2022-10-23T22:25:38.860Z,5.38
2022-10-23T22:30:40.344Z,5.50
2022-10-23T22:35:42.585Z,6.35
2022-10-23T22:40:46.612Z,6.47
2022-10-23T22:45:48.500Z,5.90
2022-10-23T22:50:52.761Z,6.45
2022-10-23T22:55:55.758Z,5.40
2022-10-23T23:01:07.133Z,6.80
2022-10-23T23:06:09.359Z,6.13
2022-10-23T23:11:13.221Z,6.90
2022-10-23T23:16:27.030Z,6.00
2022-10-23T23:21:29.560Z,6.45
2022-10-23T23:26:31.047Z,5.97
2022-10-23T23:31:32.564Z,6.95
2022-10-23T23:36:34.139Z,6.93
2022-10-23T23:41:35.635Z,5.47
2022-10-23T23:46:37.443Z,5.78
2022-10-23T23:51:38.999Z,6.35
2022-10-23T23:56:40.571Z,5.47
